Time;durP1;ratioP1;P1;durP2;ratioP2;P2;SDS_P1;SDS_P2;PMS_P1;PMS_P2;Temp;Humidity;BMP_temperature;BMP_pressure;BME280_temperature;BME280_humidity;BME280_pressure;Samples;Min_cycle;Max_cycle;Signal;HPM_P1;HPM_P2
2022/05/30 00:00:17;;;;;;;4.82;0.95;;;16.00;74.80;;;;;;5015365;28;20041;-66
2022/05/30 00:02:43;;;;;;;5.20;1.08;;;16.00;74.60;;;;;;5015552;28;20037;-66
2022/05/30 00:05:11;;;;;;;4.13;1.30;;;16.00;74.60;;;;;;5015365;28;20057;-65
2022/05/30 00:07:37;;;;;;;4.38;1.13;;;16.00;74.90;;;;;;5015513;28;20542;-66
2022/05/30 00:10:04;;;;;;;3.70;1.02;;;16.00;74.70;;;;;;5015068;28;20120;-64
2022/05/30 00:12:30;;;;;;;4.63;1.00;;;16.00;74.70;;;;;;5014854;28;20483;-65
2022/05/30 00:14:55;;;;;;;3.58;1.10;;;16.00;74.80;;;;;;5015033;28;20109;-66
2022/05/30 00:17:21;;;;;;;3.22;1.25;;;16.00;75.00;;;;;;5015078;28;20026;-65
2022/05/30 00:19:46;;;;;;;2.67;1.02;;;16.00;75.00;;;;;;5015135;28;20049;-66
2022/05/30 00:22:14;;;;;;;3.95;1.15;;;16.00;75.40;;;;;;5015063;28;20109;-65
2022/05/30 00:24:41;;;;;;;4.18;1.00;;;15.90;75.60;;;;;;5014943;28;20116;-66
2022/05/30 00:27:07;;;;;;;4.05;1.10;;;15.90;75.40;;;;;;5014792;28;20034;-66
2022/05/30 00:29:33;;;;;;;4.80;1.38;;;15.90;75.60;;;;;;5014923;28;20383;-60
2022/05/30 00:31:58;;;;;;;4.45;1.30;;;15.90;75.70;;;;;;5014772;28;20057;-65
2022/05/30 00:34:25;;;;;;;5.10;1.02;;;15.90;75.70;;;;;;5014871;28;20037;-66
2022/05/30 00:36:50;;;;;;;6.15;1.42;;;15.80;75.90;;;;;;5001118;28;20104;-62
2022/05/30 00:39:16;;;;;;;4.20;1.27;;;15.80;75.80;;;;;;5014796;28;20124;-63
2022/05/30 00:41:42;;;;;;;4.50;1.33;;;15.80;75.90;;;;;;5014279;28;20467;-61
2022/05/30 00:44:07;;;;;;;5.10;1.63;;;15.80;76.10;;;;;;5014777;28;20026;-65
2022/05/30 00:46:33;;;;;;;5.43;1.35;;;15.80;76.30;;;;;;5014490;28;20030;-66
2022/05/30 00:49:05;;;;;;;6.72;1.48;;;15.70;76.00;;;;;;5014950;28;20033;-65
2022/05/30 00:51:49;;;;;;;5.93;1.58;;;15.70;76.30;;;;;;5014357;28;20033;-66
2022/05/30 00:54:20;;;;;;;4.75;0.93;;;15.70;76.50;;;;;;5014687;28;20108;-66
2022/05/30 00:56:50;;;;;;;5.53;1.88;;;15.70;76.60;;;;;;5014138;28;20490;-64
2022/05/30 00:59:16;;;;;;;10.88;1.60;;;15.70;76.20;;;;;;5014450;28;20042;-67
2022/05/30 01:01:42;;;;;;;5.57;1.50;;;15.70;76.60;;;;;;5014011;28;20088;-60
2022/05/30 01:07:01;;;;;;;5.20;1.60;;;15.70;76.90;;;;;;5014112;28;20037;-61
2022/05/30 01:09:31;;;;;;;6.10;1.38;;;15.70;76.40;;;;;;5014471;28;20044;-60
2022/05/30 01:12:01;;;;;;;4.78;1.52;;;15.60;76.50;;;;;;5013895;28;20045;-60
2022/05/30 01:14:30;;;;;;;2.88;1.20;;;15.60;76.80;;;;;;5013973;28;20034;-61
2022/05/30 01:16:57;;;;;;;3.90;1.20;;;15.60;76.90;;;;;;5013751;28;20057;-61
2022/05/30 01:19:46;;;;;;;5.28;1.33;;;15.60;77.00;;;;;;5013954;28;20044;-60
2022/05/30 01:22:42;;;;;;;5.25;1.63;;;15.60;77.10;;;;;;5014100;28;20034;-63
2022/05/30 01:25:46;;;;;;;5.88;1.50;;;15.60;77.20;;;;;;5013454;28;20176;-62
2022/05/30 01:28:41;;;;;;;5.75;1.77;;;15.60;77.50;;;;;;4984143;28;20438;-62
2022/05/30 01:31:08;;;;;;;5.18;1.42;;;15.50;77.20;;;;;;5011987;28;20048;-66
2022/05/30 01:33:33;;;;;;;3.80;1.10;;;15.50;77.60;;;;;;5013782;28;20030;-66
2022/05/30 01:35:59;;;;;;;6.43;1.23;;;15.50;77.30;;;;;;5014053;28;20478;-67
2022/05/30 01:38:25;;;;;;;6.15;1.58;;;15.50;77.60;;;;;;5013497;28;20567;-65
2022/05/30 01:40:51;;;;;;;5.13;1.52;;;15.50;77.60;;;;;;5013955;28;20495;-66
2022/05/30 01:43:17;;;;;;;7.70;1.73;;;15.40;77.50;;;;;;5013750;28;20045;-66
2022/05/30 01:45:42;;;;;;;7.30;1.60;;;15.40;77.40;;;;;;5013709;28;20045;-66
2022/05/30 01:48:08;;;;;;;3.35;1.33;;;15.40;77.50;;;;;;5013846;28;20037;-67
2022/05/30 01:50:34;;;;;;;5.65;1.30;;;15.40;77.80;;;;;;5013828;28;20033;-66
2022/05/30 01:53:00;;;;;;;6.22;1.30;;;15.40;78.50;;;;;;5013774;28;20109;-63
2022/05/30 01:55:25;;;;;;;5.43;1.45;;;15.40;77.90;;;;;;5013453;28;20068;-65
2022/05/30 01:57:51;;;;;;;3.03;1.25;;;15.40;77.90;;;;;;5013516;28;20030;-66
2022/05/30 02:00:17;;;;;;;5.07;1.50;;;15.40;77.80;;;;;;5013491;28;20049;-67
2022/05/30 02:02:43;;;;;;;5.45;1.92;;;15.30;77.90;;;;;;5013285;28;20026;-66
2022/05/30 02:05:10;;;;;;;2.85;1.17;;;15.30;77.90;;;;;;5013812;28;20030;-66
2022/05/30 02:07:36;;;;;;;2.75;1.20;;;15.30;78.00;;;;;;5013380;28;20038;-66
2022/05/30 02:10:01;;;;;;;5.95;1.63;;;15.30;78.00;;;;;;5013408;28;20037;-66
2022/05/30 02:12:27;;;;;;;6.10;1.30;;;15.20;78.20;;;;;;5013200;28;20538;-66
2022/05/30 02:14:52;;;;;;;4.78;1.70;;;15.30;78.20;;;;;;5013577;28;20036;-66
2022/05/30 02:17:18;;;;;;;3.38;1.60;;;15.20;78.20;;;;;;5013384;28;20030;-66
2022/05/30 02:19:45;;;;;;;5.72;1.95;;;15.30;78.40;;;;;;5013265;28;20136;-66
2022/05/30 02:22:14;;;;;;;5.80;1.83;;;15.20;78.60;;;;;;5013155;28;20042;-66
2022/05/30 02:24:40;;;;;;;4.45;1.55;;;15.20;78.80;;;;;;5013103;28;20107;-66
2022/05/30 02:27:08;;;;;;;5.22;2.00;;;15.20;78.80;;;;;;5013224;28;20025;-64
2022/05/30 02:29:33;;;;;;;9.18;2.10;;;15.20;78.90;;;;;;5013058;28;20077;-66
2022/05/30 02:31:59;;;;;;;4.43;1.75;;;15.20;78.80;;;;;;5012980;28;20542;-60
2022/05/30 02:37:09;;;;;;;4.40;1.83;;;15.10;79.00;;;;;;5015489;28;20108;-62
2022/05/30 02:39:35;;;;;;;5.63;2.15;;;15.10;79.00;;;;;;5016831;28;20042;-60
2022/05/30 02:42:00;;;;;;;3.95;1.23;;;15.10;79.10;;;;;;5017115;28;20026;-60
2022/05/30 02:44:26;;;;;;;3.40;1.83;;;15.10;79.10;;;;;;5016990;28;20516;-60
2022/05/30 02:46:55;;;;;;;4.85;2.03;;;15.10;79.00;;;;;;5017120;28;20063;-63
2022/05/30 02:49:20;;;;;;;5.00;1.58;;;15.10;79.20;;;;;;5017026;28;20029;-61
2022/05/30 02:51:46;;;;;;;3.67;1.58;;;15.00;79.40;;;;;;5016721;28;20034;-64
2022/05/30 02:54:13;;;;;;;6.15;2.00;;;15.10;79.40;;;;;;5017001;28;20042;-62
2022/05/30 02:56:39;;;;;;;4.00;1.92;;;15.00;79.40;;;;;;5016698;28;20034;-62
2022/05/30 02:59:06;;;;;;;3.20;1.75;;;15.00;79.50;;;;;;5016724;28;20426;-59
2022/05/30 03:01:32;;;;;;;3.53;1.67;;;15.00;79.50;;;;;;5016753;28;20489;-66
2022/05/30 03:03:59;;;;;;;2.55;1.65;;;15.00;79.40;;;;;;5016819;28;20514;-61
2022/05/30 03:06:25;;;;;;;3.35;1.70;;;15.00;79.40;;;;;;5009480;28;20037;-62
2022/05/30 03:08:52;;;;;;;5.18;1.67;;;14.90;79.50;;;;;;5016469;28;20030;-62
2022/05/30 03:11:18;;;;;;;5.20;2.13;;;14.90;79.70;;;;;;5015979;28;20042;-59
2022/05/30 03:13:44;;;;;;;6.78;2.25;;;14.90;80.20;;;;;;5016364;28;20064;-61
2022/05/30 03:16:10;;;;;;;4.28;2.22;;;14.90;79.40;;;;;;5016620;28;20065;-60
2022/05/30 03:18:35;;;;;;;16.45;4.10;;;14.90;79.70;;;;;;5016008;28;20040;-60
2022/05/30 03:21:01;;;;;;;2.88;1.50;;;14.90;80.30;;;;;;5016251;28;20497;-61
2022/05/30 03:23:27;;;;;;;3.75;2.00;;;14.90;80.30;;;;;;5016363;28;20048;-58
2022/05/30 03:25:52;;;;;;;3.30;1.70;;;14.90;80.20;;;;;;5016233;28;20502;-60
2022/05/30 03:28:18;;;;;;;4.10;1.88;;;15.00;80.30;;;;;;5016591;28;20069;-59
2022/05/30 03:30:44;;;;;;;6.03;2.20;;;15.00;80.30;;;;;;5016087;28;20467;-63
2022/05/30 03:33:10;;;;;;;4.00;1.83;;;14.90;80.50;;;;;;5016282;28;20068;-62
2022/05/30 03:35:37;;;;;;;4.30;1.92;;;15.00;80.70;;;;;;5015883;28;20044;-63
2022/05/30 03:38:03;;;;;;;3.95;2.22;;;15.00;80.60;;;;;;5015976;28;20026;-62
2022/05/30 03:40:29;;;;;;;3.47;1.90;;;15.00;80.70;;;;;;5015862;28;20077;-62
2022/05/30 03:42:55;;;;;;;4.30;1.85;;;15.00;80.70;;;;;;5016029;28;20080;-63
2022/05/30 03:45:21;;;;;;;1.95;1.40;;;15.00;80.70;;;;;;5016017;28;20509;-63
2022/05/30 03:47:47;;;;;;;5.20;1.77;;;15.00;80.90;;;;;;5015723;28;20474;-62
2022/05/30 03:50:18;;;;;;;5.68;2.20;;;15.00;80.90;;;;;;5015765;28;20034;-59
2022/05/30 03:52:44;;;;;;;3.30;1.45;;;15.00;80.90;;;;;;5015812;28;20063;-60
2022/05/30 03:55:15;;;;;;;3.85;1.67;;;15.00;81.20;;;;;;5015866;28;20410;-60
2022/05/30 03:57:42;;;;;;;7.10;1.50;;;15.00;81.30;;;;;;5015939;28;20112;-60
2022/05/30 04:00:17;;;;;;;4.55;2.22;;;15.00;81.40;;;;;;5015779;28;20041;-57
2022/05/30 04:02:44;;;;;;;5.50;2.05;;;15.00;81.20;;;;;;5015356;28;20083;-63
2022/05/30 04:05:11;;;;;;;5.15;1.92;;;14.90;81.40;;;;;;5015388;28;20041;-62
2022/05/30 04:07:37;;;;;;;4.53;1.80;;;15.00;81.60;;;;;;5015415;28;20045;-62
2022/05/30 04:10:03;;;;;;;7.95;1.98;;;15.00;81.70;;;;;;5015364;28;20417;-63
2022/05/30 04:12:29;;;;;;;7.00;2.63;;;15.00;81.90;;;;;;5015393;28;20057;-62
2022/05/30 04:14:57;;;;;;;7.88;2.63;;;15.00;81.70;;;;;;5015370;28;20549;-62
2022/05/30 04:17:24;;;;;;;5.35;2.10;;;14.90;81.50;;;;;;5015639;28;20048;-62
2022/05/30 04:19:50;;;;;;;6.13;1.83;;;14.90;81.90;;;;;;5014699;28;20038;-63
2022/05/30 04:22:16;;;;;;;5.18;2.20;;;14.90;82.00;;;;;;5015052;28;20410;-63
2022/05/30 04:24:42;;;;;;;4.25;1.67;;;14.90;82.00;;;;;;5015306;28;20033;-63
2022/05/30 04:27:08;;;;;;;4.03;1.90;;;14.90;82.10;;;;;;5015227;28;20452;-63
2022/05/30 04:29:34;;;;;;;7.55;1.98;;;14.90;82.10;;;;;;5015222;28;20030;-62
2022/05/30 04:32:01;;;;;;;6.05;1.90;;;15.00;82.20;;;;;;5014884;28;20030;-61
2022/05/30 04:34:27;;;;;;;4.65;1.90;;;14.90;82.30;;;;;;5014758;28;20093;-59
2022/05/30 04:36:52;;;;;;;4.60;1.98;;;14.90;82.40;;;;;;5014830;28;20026;-60
2022/05/30 04:39:18;;;;;;;6.22;2.03;;;14.90;83.10;;;;;;5015134;28;20132;-63
2022/05/30 04:41:43;;;;;;;6.07;2.17;;;14.90;82.60;;;;;;5014919;28;20025;-61
2022/05/30 04:44:09;;;;;;;5.90;2.40;;;14.90;82.60;;;;;;5014955;28;20072;-61
2022/05/30 04:46:35;;;;;;;3.72;2.40;;;14.90;82.70;;;;;;5014677;28;20560;-61
2022/05/30 04:49:00;;;;;;;6.00;2.10;;;14.90;82.60;;;;;;5014448;28;20034;-61
2022/05/30 04:51:27;;;;;;;5.43;2.45;;;15.00;82.50;;;;;;5014705;28;20026;-62
2022/05/30 04:53:53;;;;;;;8.02;2.45;;;14.90;82.60;;;;;;5014604;28;20069;-62
2022/05/30 04:56:19;;;;;;;4.72;2.25;;;14.90;82.40;;;;;;5014595;28;20080;-62
2022/05/30 04:58:49;;;;;;;4.43;2.20;;;14.90;82.80;;;;;;5013898;28;20046;-63
2022/05/30 05:01:15;;;;;;;7.38;2.30;;;14.90;83.10;;;;;;5010903;28;20041;-63
2022/05/30 05:03:42;;;;;;;5.82;2.63;;;14.90;83.10;;;;;;5010068;28;20029;-62
2022/05/30 05:06:15;;;;;;;8.65;2.50;;;14.90;82.90;;;;;;5012987;28;20040;-62
2022/05/30 05:08:43;;;;;;;;;;;15.00;82.90;;;;;;5014462;28;20038;-61
2022/05/30 05:11:12;;;;;;;5.22;2.40;;;15.00;82.80;;;;;;5014241;28;20000;-62
2022/05/30 05:13:37;;;;;;;7.55;2.20;;;14.90;83.30;;;;;;5014276;28;20038;-59
2022/05/30 05:16:03;;;;;;;7.18;2.58;;;15.00;83.30;;;;;;5011144;28;20554;-58
2022/05/30 05:18:29;;;;;;;6.50;2.55;;;14.90;83.30;;;;;;5009562;28;20390;-54
2022/05/30 05:20:54;;;;;;;5.10;2.65;;;15.00;83.30;;;;;;5012753;28;20040;-60
2022/05/30 05:23:20;;;;;;;5.30;2.88;;;15.00;82.90;;;;;;5012822;28;20033;-62
2022/05/30 05:25:45;;;;;;;8.43;2.63;;;15.00;82.80;;;;;;5011430;28;20030;-62
2022/05/30 05:28:11;;;;;;;8.70;2.92;;;15.00;83.10;;;;;;4998949;28;20034;-62
2022/05/30 05:30:40;;;;;;;5.13;2.08;;;15.00;83.30;;;;;;5003689;28;20116;-62
2022/05/30 05:33:05;;;;;;;7.82;2.58;;;15.10;83.50;;;;;;5010993;28;20108;-62
2022/05/30 05:35:31;;;;;;;8.52;2.42;;;15.10;83.50;;;;;;5005900;28;20120;-61
2022/05/30 05:37:57;;;;;;;10.60;3.80;;;15.10;83.10;;;;;;5000917;28;20390;-60
2022/05/30 05:40:22;;;;;;;7.35;2.88;;;15.10;83.00;;;;;;4994731;28;20033;-60
2022/05/30 05:42:48;;;;;;;6.82;2.70;;;15.00;83.70;;;;;;5009797;28;20089;-63
2022/05/30 05:45:13;;;;;;;9.02;2.63;;;15.00;84.00;;;;;;5013247;28;20041;-65
2022/05/30 05:47:39;;;;;;;9.57;3.17;;;15.00;84.50;;;;;;5011230;28;20017;-57
2022/05/30 05:50:05;;;;;;;9.38;3.53;;;15.00;84.50;;;;;;5011682;28;20040;-64
2022/05/30 05:52:32;;;;;;;5.68;2.97;;;15.10;84.20;;;;;;5012676;28;20030;-64
2022/05/30 05:54:58;;;;;;;10.50;2.92;;;15.10;84.20;;;;;;5013095;28;20107;-64
2022/05/30 05:57:25;;;;;;;13.20;3.08;;;15.10;84.30;;;;;;5013261;28;20414;-64
2022/05/30 05:59:51;;;;;;;10.20;3.53;;;15.10;83.90;;;;;;5010251;28;20080;-64
2022/05/30 06:02:17;;;;;;;10.05;2.95;;;15.10;84.30;;;;;;5008278;28;20080;-64
2022/05/30 06:04:44;;;;;;;11.07;3.58;;;15.10;84.80;;;;;;5001703;28;20046;-61
2022/05/30 06:07:10;;;;;;;7.40;3.13;;;15.10;84.30;;;;;;4997222;28;20023;-61
2022/05/30 06:09:36;;;;;;;10.38;3.20;;;15.20;84.30;;;;;;5004872;28;20118;-65
2022/05/30 06:12:03;;;;;;;12.35;3.67;;;15.20;84.60;;;;;;5010345;28;20041;-65
2022/05/30 06:14:28;;;;;;;10.65;3.35;;;15.20;85.30;;;;;;5010586;28;20038;-66
2022/05/30 06:16:54;;;;;;;10.10;3.20;;;15.20;86.00;;;;;;5000914;28;21322;-63
2022/05/30 06:19:20;;;;;;;8.40;3.28;;;15.30;86.20;;;;;;5012770;28;20072;-63
2022/05/30 06:21:46;;;;;;;10.77;3.35;;;15.40;85.50;;;;;;5010904;28;20026;-64
2022/05/30 06:24:12;;;;;;;9.52;3.15;;;15.50;85.30;;;;;;5010562;28;20041;-65
2022/05/30 06:26:38;;;;;;;9.85;3.00;;;15.60;84.70;;;;;;5012615;28;20022;-62
2022/05/30 06:29:04;;;;;;;10.13;3.15;;;15.60;83.00;;;;;;5011372;28;20034;-63
2022/05/30 06:31:31;;;;;;;9.00;3.13;;;15.70;83.00;;;;;;4994783;28;20025;-64
2022/05/30 06:33:59;;;;;;;10.00;2.58;;;15.80;82.50;;;;;;5006158;28;20077;-64
2022/05/30 06:36:25;;;;;;;7.72;2.30;;;15.90;79.70;;;;;;5011052;28;20034;-63
2022/05/30 06:38:52;;;;;;;5.80;2.17;;;15.90;78.60;;;;;;5007801;28;20042;-62
2022/05/30 06:41:22;;;;;;;6.32;1.80;;;16.00;77.70;;;;;;5010038;28;20041;-62
2022/05/30 06:43:52;;;;;;;10.25;2.47;;;16.10;78.90;;;;;;5011768;28;20092;-63
2022/05/30 06:46:18;;;;;;;6.93;2.50;;;16.20;79.90;;;;;;5013420;28;20054;-63
2022/05/30 06:48:45;;;;;;;6.47;2.13;;;16.20;79.90;;;;;;5012708;28;20065;-64
2022/05/30 06:51:13;;;;;;;6.85;1.80;;;16.30;78.60;;;;;;5002406;28;20057;-62
2022/05/30 06:53:43;;;;;;;8.27;2.03;;;16.30;78.80;;;;;;5012569;28;20091;-64
2022/05/30 06:56:17;;;;;;;12.00;3.05;;;16.30;78.00;;;;;;5012745;28;20384;-63
2022/05/30 06:58:44;;;;;;;8.93;2.17;;;16.40;76.00;;;;;;4997389;28;20073;-64
2022/05/30 07:01:11;;;;;;;5.88;1.60;;;16.50;77.00;;;;;;5012470;28;20390;-63
2022/05/30 07:03:38;;;;;;;8.02;2.20;;;16.50;76.90;;;;;;5012391;28;20112;-62
2022/05/30 07:06:08;;;;;;;9.73;2.10;;;16.60;75.10;;;;;;5011898;28;20075;-64
2022/05/30 07:08:35;;;;;;;7.32;1.92;;;16.70;74.70;;;;;;5012843;28;20041;-64
2022/05/30 07:11:01;;;;;;;8.05;2.33;;;16.70;74.20;;;;;;5009575;28;20030;-64
2022/05/30 07:13:27;;;;;;;5.53;1.38;;;16.80;75.20;;;;;;5004956;28;20033;-65
2022/05/30 07:15:53;;;;;;;6.43;1.60;;;16.80;75.90;;;;;;5012913;28;20026;-63
2022/05/30 07:18:19;;;;;;;5.32;1.20;;;16.90;76.20;;;;;;5008090;28;20041;-64
2022/05/30 07:20:45;;;;;;;7.15;2.20;;;17.00;74.40;;;;;;4994918;28;20514;-64
2022/05/30 07:23:13;;;;;;;5.22;1.08;;;17.00;71.40;;;;;;4990036;28;20030;-64
2022/05/30 07:25:39;;;;;;;8.05;1.52;;;17.20;67.90;;;;;;5000246;28;20034;-63
2022/05/30 07:28:06;;;;;;;7.03;1.95;;;17.30;66.70;;;;;;5011729;28;20041;-64
2022/05/30 07:30:34;;;;;;;4.65;1.10;;;17.30;66.80;;;;;;5016052;28;20093;-63
2022/05/30 07:33:00;;;;;;;4.82;1.20;;;17.50;67.10;;;;;;4998580;28;20077;-64
2022/05/30 07:35:26;;;;;;;5.45;1.25;;;17.50;66.50;;;;;;4998134;28;20070;-64
2022/05/30 07:37:52;;;;;;;7.05;1.40;;;17.60;64.60;;;;;;5006114;28;20608;-64
2022/05/30 07:40:18;;;;;;;8.48;1.27;;;17.60;66.40;;;;;;4998204;28;20047;-64
2022/05/30 07:42:43;;;;;;;5.45;1.45;;;17.60;66.20;;;;;;5011651;28;20146;-64
2022/05/30 07:45:10;;;;;;;7.50;1.33;;;17.60;65.30;;;;;;5015533;28;20040;-64
2022/05/30 07:47:35;;;;;;;6.95;1.48;;;17.60;64.10;;;;;;5009670;28;20057;-65
2022/05/30 07:50:04;;;;;;;6.82;1.58;;;17.60;65.90;;;;;;5015559;28;20509;-64
2022/05/30 07:52:30;;;;;;;7.47;1.58;;;17.60;65.30;;;;;;5014363;28;20038;-64
2022/05/30 07:54:56;;;;;;;3.83;1.67;;;17.60;65.80;;;;;;5011429;28;20033;-64
2022/05/30 07:57:50;;;;;;;8.20;1.80;;;17.70;65.30;;;;;;5014011;28;20033;-64
2022/05/30 08:00:09;;;;;;;7.75;1.77;;;17.70;65.20;;;;;;5010244;28;20499;-65
2022/05/30 08:02:34;;;;;;;7.47;1.88;;;17.60;65.90;;;;;;5013489;28;20093;-64
2022/05/30 08:05:00;;;;;;;6.63;1.75;;;17.70;65.80;;;;;;4988826;28;20113;-64
2022/05/30 08:07:25;;;;;;;7.40;1.60;;;17.60;65.50;;;;;;5012788;28;20044;-63
2022/05/30 08:09:51;;;;;;;6.55;1.77;;;17.70;65.90;;;;;;5006051;28;20053;-64
2022/05/30 08:12:17;;;;;;;6.50;1.85;;;17.70;65.60;;;;;;5000991;28;20501;-64
2022/05/30 08:14:42;;;;;;;5.68;1.85;;;17.70;66.10;;;;;;5014976;28;20398;-64
2022/05/30 08:17:08;;;;;;;6.55;1.95;;;17.70;66.30;;;;;;5015470;28;20439;-63
2022/05/30 08:19:33;;;;;;;9.60;1.70;;;17.70;67.10;;;;;;5015291;28;20438;-64
2022/05/30 08:22:07;;;;;;;7.10;2.13;;;17.70;66.50;;;;;;5005858;28;20452;-64
2022/05/30 08:24:41;;;;;;;5.13;1.67;;;17.70;65.90;;;;;;4995843;28;20034;-64
2022/05/30 08:27:07;;;;;;;5.68;1.70;;;17.80;66.00;;;;;;5000012;28;20109;-64
2022/05/30 08:29:33;;;;;;;7.75;2.30;;;17.70;66.50;;;;;;4987849;28;20541;-64
2022/05/30 08:31:58;;;;;;;6.65;1.48;;;17.80;66.60;;;;;;4988659;28;20153;-65
2022/05/30 08:34:24;;;;;;;7.97;1.83;;;17.80;66.30;;;;;;4994536;28;20070;-66
2022/05/30 08:36:50;;;;;;;5.25;1.40;;;17.80;65.20;;;;;;5005351;28;20467;-64
2022/05/30 08:42:00;;;;;;;8.80;1.98;;;17.80;66.90;;;;;;5011708;28;20459;-64
2022/05/30 08:44:29;;;;;;;6.03;1.73;;;17.80;67.10;;;;;;5014896;28;20037;-63
2022/05/30 08:47:05;;;;;;;6.93;1.65;;;17.80;67.50;;;;;;5008756;28;20145;-64
2022/05/30 08:49:41;;;;;;;4.18;1.10;;;17.80;68.00;;;;;;5009767;28;20029;-63
2022/05/30 08:52:26;;;;;;;4.57;1.15;;;17.80;68.80;;;;;;5013695;28;20163;-64
2022/05/30 08:55:05;;;;;;;8.07;1.52;;;17.80;67.80;;;;;;5011381;28;20029;-63
2022/05/30 08:57:53;;;;;;;6.32;1.30;;;17.90;65.80;;;;;;5011677;28;20113;-64
2022/05/30 09:00:48;;;;;;;6.35;1.70;;;17.90;65.20;;;;;;5014560;28;20463;-64
2022/05/30 09:03:38;;;;;;;5.55;1.40;;;17.90;64.90;;;;;;5014002;28;20054;-63
2022/05/30 09:06:20;;;;;;;5.18;1.50;;;17.90;64.70;;;;;;5014463;28;20578;-63
2022/05/30 09:08:52;;;;;;;6.45;1.48;;;17.90;64.70;;;;;;5014315;28;20116;-64
2022/05/30 09:11:34;;;;;;;7.78;1.30;;;17.90;64.60;;;;;;5014338;28;20535;-64
2022/05/30 09:14:05;;;;;;;3.65;1.05;;;17.90;65.50;;;;;;5000135;28;20034;-65
2022/05/30 09:16:37;;;;;;;5.40;1.33;;;17.90;69.20;;;;;;5013819;28;20561;-64
2022/05/30 09:19:07;;;;;;;5.65;1.63;;;18.00;65.50;;;;;;5013615;28;20037;-65
2022/05/30 09:21:33;;;;;;;4.43;0.90;;;18.00;64.20;;;;;;5012316;28;20034;-63
2022/05/30 09:23:59;;;;;;;6.43;1.67;;;18.00;64.00;;;;;;5013854;28;20104;-65
2022/05/30 09:26:28;;;;;;;5.63;1.65;;;18.00;63.90;;;;;;5013818;28;20033;-64
2022/05/30 09:28:55;;;;;;;4.72;1.90;;;18.00;64.40;;;;;;5014057;28;20025;-64
2022/05/30 09:31:21;;;;;;;4.70;1.30;;;18.00;64.40;;;;;;5013352;28;20092;-64
2022/05/30 09:33:56;;;;;;;5.88;1.40;;;18.00;63.70;;;;;;5013618;28;20041;-64
2022/05/30 09:36:30;;;;;;;7.18;1.63;;;18.00;64.00;;;;;;5013516;28;20029;-65
2022/05/30 09:39:01;;;;;;;5.68;1.38;;;18.00;63.10;;;;;;5004001;28;20077;-63
2022/05/30 09:41:57;;;;;;;4.40;1.52;;;18.00;63.60;;;;;;5003087;28;20127;-64
2022/05/30 09:44:41;;;;;;;6.32;1.50;;;18.00;64.60;;;;;;5010476;28;20049;-64
2022/05/30 09:47:14;;;;;;;5.03;1.60;;;18.00;63.80;;;;;;5008709;28;20062;-64
2022/05/30 09:49:44;;;;;;;8.13;1.50;;;18.00;63.50;;;;;;5001919;28;20029;-64
2022/05/30 09:52:25;;;;;;;4.45;1.30;;;18.00;63.60;;;;;;5003648;28;20109;-64
2022/05/30 09:54:51;;;;;;;5.65;1.77;;;18.10;63.80;;;;;;5007487;28;20033;-64
2022/05/30 09:57:23;;;;;;;3.40;1.38;;;18.00;63.60;;;;;;5011715;28;20026;-64
2022/05/30 09:59:52;;;;;;;4.68;1.52;;;18.10;63.60;;;;;;5007469;28;20038;-63
2022/05/30 10:02:36;;;;;;;6.63;1.70;;;18.10;63.30;;;;;;5012521;28;20061;-64
2022/05/30 10:05:21;;;;;;;9.90;2.65;;;18.10;63.90;;;;;;5004446;28;20037;-64
2022/05/30 10:07:54;;;;;;;5.70;1.75;;;18.10;63.80;;;;;;4998653;28;20037;-64
2022/05/30 10:10:40;;;;;;;5.40;1.42;;;18.10;65.00;;;;;;5001703;28;20046;-63
2022/05/30 10:13:11;;;;;;;8.85;2.22;;;18.10;65.10;;;;;;5007620;28;20088;-64
2022/05/30 10:15:41;;;;;;;3.42;1.77;;;18.10;64.90;;;;;;5011376;28;20471;-64
2022/05/30 10:18:13;;;;;;;5.95;1.98;;;18.10;65.00;;;;;;5003583;28;20019;-63
2022/05/30 10:20:47;;;;;;;10.38;1.75;;;18.20;65.40;;;;;;5005336;28;20060;-63
2022/05/30 10:29:43;;;;;;;6.32;1.70;;;18.20;65.50;;;;;;4992329;28;20108;-64
2022/05/30 10:32:30;;;;;;;7.35;1.65;;;18.20;66.70;;;;;;5002815;28;20030;-64
2022/05/30 10:35:30;;;;;;;5.53;1.33;;;18.20;64.00;;;;;;5003868;28;20036;-64
2022/05/30 10:38:10;;;;;;;4.45;1.23;;;18.20;64.10;;;;;;5004406;28;20022;-64
2022/05/30 10:40:48;;;;;;;5.50;1.90;;;18.20;65.70;;;;;;5003271;28;20098;-64
2022/05/30 10:43:37;;;;;;;5.00;1.58;;;18.20;63.70;;;;;;5008507;28;20025;-63
2022/05/30 10:46:12;;;;;;;5.03;1.38;;;18.20;64.30;;;;;;5004995;28;20026;-64
2022/05/30 10:48:53;;;;;;;4.07;1.30;;;18.30;64.20;;;;;;5002963;28;20041;-63
2022/05/30 10:51:35;;;;;;;12.43;1.67;;;18.30;63.60;;;;;;5009300;28;20479;-61
2022/05/30 10:54:00;;;;;;;6.03;0.90;;;18.40;57.10;;;;;;5002235;28;20070;-62
2022/05/30 10:56:37;;;;;;;3.78;0.77;;;18.50;56.30;;;;;;5000369;28;20038;-61
2022/05/30 10:59:16;;;;;;;2.47;0.65;;;18.50;56.80;;;;;;4998901;28;20038;-61
2022/05/30 11:01:56;;;;;;;3.13;0.60;;;18.60;54.70;;;;;;5011363;28;20030;-61
2022/05/30 11:04:32;;;;;;;2.50;0.73;;;18.70;54.50;;;;;;5005947;28;20391;-61
2022/05/30 11:07:04;;;;;;;5.05;0.95;;;18.70;55.50;;;;;;5011978;28;20034;-61
2022/05/30 11:09:37;;;;;;;4.20;1.00;;;18.70;55.90;;;;;;5001708;28;20046;-62
2022/05/30 11:12:35;;;;;;;5.57;1.13;;;18.80;56.10;;;;;;5012408;28;20084;-61
2022/05/30 11:15:31;;;;;;;4.93;1.08;;;18.80;58.00;;;;;;5007177;28;20065;-62
2022/05/30 11:18:10;;;;;;;5.40;1.05;;;18.80;58.50;;;;;;5008604;28;20045;-61
2022/05/30 11:20:56;;;;;;;4.57;0.75;;;18.90;57.20;;;;;;5012951;28;20110;-61
2022/05/30 11:23:22;;;;;;;3.08;0.50;;;18.90;59.00;;;;;;5013133;28;20022;-61
2022/05/30 11:26:06;;;;;;;3.78;0.98;;;18.90;58.40;;;;;;5015115;28;20033;-62
2022/05/30 11:28:32;;;;;;;3.67;1.08;;;18.90;57.60;;;;;;5004904;28;20037;-62
2022/05/30 11:31:12;;;;;;;2.88;1.33;;;18.90;56.60;;;;;;5012429;28;20379;-61
2022/05/30 11:33:44;;;;;;;6.07;1.38;;;19.00;56.60;;;;;;5001129;28;20482;-61
2022/05/30 11:36:31;;;;;;;2.83;0.93;;;18.90;56.00;;;;;;5016009;28;20383;-60
2022/05/30 11:39:21;;;;;;;3.03;1.05;;;19.00;57.50;;;;;;5005245;28;20045;-61
2022/05/30 11:41:59;;;;;;;2.35;0.77;;;19.00;56.40;;;;;;5004429;28;20454;-61
2022/05/30 11:44:34;;;;;;;2.50;0.63;;;19.00;57.10;;;;;;5010884;28;20041;-60
2022/05/30 11:47:14;;;;;;;3.65;1.00;;;19.00;58.10;;;;;;5001934;28;20025;-61
2022/05/30 11:49:56;;;;;;;3.72;1.05;;;19.00;56.70;;;;;;5009219;28;20117;-61
2022/05/30 11:52:40;;;;;;;3.67;0.63;;;19.00;56.90;;;;;;5011002;28;20026;-60
2022/05/30 11:55:25;;;;;;;3.63;0.82;;;19.10;57.00;;;;;;5014173;28;20057;-61
2022/05/30 11:57:55;;;;;;;2.47;0.77;;;19.10;57.20;;;;;;5006119;28;20057;-61
2022/05/30 12:00:36;;;;;;;5.57;1.17;;;19.00;55.50;;;;;;4999543;28;20391;-61
2022/05/30 12:03:22;;;;;;;3.42;1.15;;;19.10;55.90;;;;;;5006483;28;20521;-61
2022/05/30 12:06:12;;;;;;;2.47;0.82;;;19.10;55.20;;;;;;5003757;28;20037;-61
2022/05/30 12:08:56;;;;;;;4.85;0.98;;;19.10;55.50;;;;;;5001457;28;20034;-62
2022/05/30 12:11:34;;;;;;;3.47;0.80;;;19.10;57.30;;;;;;5007094;28;20114;-61
2022/05/30 12:14:30;;;;;;;3.85;0.98;;;19.10;55.80;;;;;;5013965;28;20038;-63
2022/05/30 12:17:14;;;;;;;5.50;1.50;;;19.10;56.90;;;;;;5010205;28;20044;-63
2022/05/30 12:25:36;;;;;;;4.70;1.58;;;19.00;59.10;;;;;;5013147;28;20156;-63
2022/05/30 12:28:26;;;;;;;5.82;1.80;;;19.00;60.00;;;;;;5009416;28;20032;-64
2022/05/30 12:30:57;;;;;;;3.88;0.75;;;18.90;60.10;;;;;;5012547;28;20088;-64
2022/05/30 12:33:28;;;;;;;5.32;1.67;;;18.90;61.50;;;;;;5011789;28;20085;-64
2022/05/30 12:36:06;;;;;;;6.13;1.40;;;18.90;61.20;;;;;;5008130;28;20015;-64
2022/05/30 12:38:55;;;;;;;5.13;1.42;;;18.90;61.40;;;;;;5006911;28;20498;-62
2022/05/30 12:41:36;;;;;;;4.15;1.42;;;18.90;60.40;;;;;;5009758;28;20042;-63
2022/05/30 12:44:03;;;;;;;4.72;1.10;;;18.90;60.80;;;;;;5008413;28;20060;-64
2022/05/30 12:46:31;;;;;;;4.72;1.00;;;18.90;61.50;;;;;;5011963;28;20030;-63
2022/05/30 12:49:16;;;;;;;2.15;0.80;;;18.90;61.80;;;;;;4997747;28;20053;-63
2022/05/30 12:51:59;;;;;;;3.33;1.33;;;19.00;62.20;;;;;;5009644;28;20541;-64
2022/05/30 12:54:57;;;;;;;3.97;1.60;;;18.90;61.90;;;;;;5012496;28;20026;-64
2022/05/30 12:57:35;;;;;;;5.57;1.42;;;19.00;60.60;;;;;;5006876;28;20045;-64
2022/05/30 13:00:14;;;;;;;4.68;1.50;;;19.00;60.90;;;;;;5005423;28;20038;-64
2022/05/30 13:02:56;;;;;;;5.45;1.20;;;18.90;60.70;;;;;;5006275;28;20044;-64
2022/05/30 13:05:45;;;;;;;5.07;1.63;;;19.00;61.30;;;;;;5011009;28;20044;-64
2022/05/30 13:08:48;;;;;;;4.30;1.42;;;19.00;59.80;;;;;;5003985;28;20494;-64
2022/05/30 13:11:36;;;;;;;5.05;0.95;;;19.00;59.90;;;;;;5011968;28;20135;-64
2022/05/30 13:14:28;;;;;;;3.53;1.70;;;19.00;61.70;;;;;;5008712;28;20026;-64
2022/05/30 13:17:01;;;;;;;3.10;1.50;;;19.00;61.40;;;;;;5004369;28;20034;-62
2022/05/30 13:19:28;;;;;;;3.97;1.58;;;19.00;58.40;;;;;;5001950;28;20044;-64
2022/05/30 13:21:55;;;;;;;4.28;1.20;;;19.00;59.70;;;;;;5007678;28;20022;-61
2022/05/30 13:24:31;;;;;;;2.92;1.25;;;19.00;60.20;;;;;;5010274;28;20161;-64